Time;durP1;ratioP1;P1;durP2;ratioP2;P2;SDS_P1;SDS_P2;PMS_P1;PMS_P2;Temp;Humidity;BMP_temperature;BMP_pressure;BME280_temperature;BME280_humidity;BME280_pressure;Samples;Min_cycle;Max_cycle;Signal;HPM_P1;HPM_P2
2024/03/20 00:02:23;;;;;;;3.10;0.80;;;17.90;58.00;;;;;;6228234;23;20565;-81
2024/03/20 00:04:51;;;;;;;5.60;1.00;;;17.90;58.20;;;;;;6203540;23;20141;-80
2024/03/20 00:07:18;;;;;;;6.13;1.33;;;17.90;58.20;;;;;;6227930;23;20194;-81
2024/03/20 00:09:44;;;;;;;4.50;1.02;;;17.90;58.30;;;;;;6227615;23;20134;-80
2024/03/20 00:12:10;;;;;;;3.83;1.10;;;17.90;58.30;;;;;;6202366;23;20218;-81
2024/03/20 00:14:37;;;;;;;3.08;0.98;;;17.90;58.20;;;;;;6254957;23;20156;-81
2024/03/20 00:17:04;;;;;;;4.15;1.00;;;17.90;58.20;;;;;;6222315;23;20189;-80
2024/03/20 00:19:30;;;;;;;3.60;1.00;;;17.90;58.20;;;;;;6172510;23;20142;-81
2024/03/20 00:21:56;;;;;;;4.25;0.90;;;17.90;58.30;;;;;;6221790;23;20214;-80
2024/03/20 00:24:22;;;;;;;4.18;1.00;;;17.90;58.20;;;;;;6197632;23;20168;-83
2024/03/20 00:26:47;;;;;;;4.32;1.33;;;17.80;58.10;;;;;;6197602;23;20186;-81
2024/03/20 00:29:16;;;;;;;3.10;1.15;;;17.80;58.00;;;;;;6170725;23;20141;-79
2024/03/20 00:31:43;;;;;;;3.30;1.10;;;17.80;58.30;;;;;;6170934;23;20138;-79
2024/03/20 00:34:09;;;;;;;4.60;1.13;;;17.80;58.30;;;;;;6196782;23;20146;-80
2024/03/20 00:36:36;;;;;;;1.88;0.90;;;17.80;58.10;;;;;;6197111;23;20212;-80
2024/03/20 00:39:01;;;;;;;3.78;1.05;;;17.90;58.10;;;;;;6197257;23;20150;-81
2024/03/20 00:41:27;;;;;;;7.32;1.00;;;17.80;58.10;;;;;;6196915;23;20134;-79
2024/03/20 00:43:55;;;;;;;3.55;0.90;;;17.80;58.00;;;;;;6171710;23;20174;-80
2024/03/20 00:46:23;;;;;;;2.80;0.95;;;17.80;58.20;;;;;;6171683;23;20142;-80
2024/03/20 00:48:50;;;;;;;4.13;1.02;;;17.80;58.30;;;;;;6196858;23;20138;-80
2024/03/20 00:51:16;;;;;;;4.78;0.93;;;17.80;58.10;;;;;;6197286;23;20193;-81
2024/03/20 00:53:43;;;;;;;5.28;1.00;;;17.80;58.30;;;;;;6196649;23;20829;-81
2024/03/20 00:56:09;;;;;;;3.53;0.90;;;17.80;58.10;;;;;;6171523;23;20146;-80
2024/03/20 00:58:37;;;;;;;3.58;1.17;;;17.80;58.20;;;;;;6171728;23;20158;-80
2024/03/20 01:01:04;;;;;;;4.03;1.30;;;17.80;58.20;;;;;;6196349;23;20189;-80
2024/03/20 01:03:32;;;;;;;4.45;1.00;;;17.80;58.10;;;;;;6171064;23;20177;-79
2024/03/20 01:05:57;;;;;;;2.47;1.17;;;17.80;58.00;;;;;;6195777;23;20126;-81
2024/03/20 01:08:23;;;;;;;2.60;0.82;;;17.80;58.30;;;;;;6196079;23;20522;-80
2024/03/20 01:10:50;;;;;;;2.47;0.85;;;17.80;58.10;;;;;;6196371;23;20213;-80
2024/03/20 01:13:18;;;;;;;3.38;0.75;;;17.80;58.10;;;;;;6171259;23;20200;-80
2024/03/20 01:15:46;;;;;;;4.32;1.13;;;17.80;57.70;;;;;;6171972;23;20150;-79
2024/03/20 01:18:13;;;;;;;3.47;0.93;;;17.80;58.00;;;;;;6221823;23;20215;-82
2024/03/20 01:20:40;;;;;;;3.70;0.90;;;17.80;58.10;;;;;;6145884;23;20182;-81
2024/03/20 01:23:08;;;;;;;6.30;1.00;;;17.80;58.20;;;;;;6171288;23;20174;-80
2024/03/20 01:25:36;;;;;;;4.38;1.13;;;17.80;58.30;;;;;;6197019;23;20157;-81
2024/03/20 01:28:03;;;;;;;1.42;0.63;;;17.70;58.10;;;;;;6173271;23;20164;-82
2024/03/20 01:30:31;;;;;;;2.75;1.05;;;17.80;58.30;;;;;;6173622;23;20150;-80
2024/03/20 01:32:58;;;;;;;3.50;0.80;;;17.80;58.00;;;;;;6173041;23;20154;-81
2024/03/20 01:35:28;;;;;;;4.05;0.93;;;17.80;58.20;;;;;;6174187;23;20162;-82
2024/03/20 01:38:01;;;;;;;3.17;1.00;;;17.80;58.00;;;;;;6173297;23;20154;-80
2024/03/20 01:40:34;;;;;;;3.10;0.90;;;17.80;58.40;;;;;;6148884;23;20154;-80
2024/03/20 01:43:00;;;;;;;1.77;0.75;;;17.80;58.40;;;;;;6172707;23;20621;-80
2024/03/20 01:45:26;;;;;;;2.72;1.00;;;17.70;58.00;;;;;;6174783;23;20178;-80
2024/03/20 01:47:51;;;;;;;2.55;1.30;;;17.70;58.40;;;;;;6199755;23;20130;-80
2024/03/20 01:50:21;;;;;;;1.90;0.80;;;17.70;58.50;;;;;;6198543;23;20149;-80
2024/03/20 01:52:52;;;;;;;4.22;0.90;;;17.80;58.10;;;;;;6224506;23;20134;-80
2024/03/20 01:55:19;;;;;;;2.38;0.93;;;17.70;58.30;;;;;;6200019;23;20130;-82
2024/03/20 01:57:47;;;;;;;3.05;1.08;;;17.70;58.20;;;;;;6174491;23;20604;-80
2024/03/20 02:00:23;;;;;;;2.42;1.00;;;17.80;58.60;;;;;;6198897;23;20160;-80
2024/03/20 02:02:52;;;;;;;5.95;0.98;;;17.70;58.50;;;;;;6199362;23;20180;-80
2024/03/20 02:05:19;;;;;;;3.42;1.00;;;17.70;58.20;;;;;;6174483;23;20150;-81
2024/03/20 02:07:46;;;;;;;2.47;0.93;;;17.70;58.60;;;;;;6198656;23;20569;-80
2024/03/20 02:10:12;;;;;;;1.70;0.90;;;17.70;58.50;;;;;;6198723;23;20238;-80
2024/03/20 02:12:39;;;;;;;1.38;0.82;;;17.70;58.40;;;;;;6174329;23;20146;-82
2024/03/20 02:15:08;;;;;;;4.78;1.00;;;17.80;58.50;;;;;;6175663;23;20142;-79
2024/03/20 02:17:36;;;;;;;2.30;0.82;;;17.70;58.30;;;;;;6170405;23;20278;-80
2024/03/20 02:20:04;;;;;;;2.28;1.00;;;17.80;58.90;;;;;;6170845;23;20138;-79
2024/03/20 02:22:41;;;;;;;2.95;0.90;;;17.70;58.00;;;;;;6170946;23;20286;-80
2024/03/20 02:25:11;;;;;;;3.20;1.00;;;17.70;58.10;;;;;;6147727;23;20169;-81
2024/03/20 02:27:47;;;;;;;2.55;1.08;;;17.70;58.30;;;;;;6145139;23;20162;-80
2024/03/20 02:30:17;;;;;;;2.97;1.00;;;17.70;58.20;;;;;;6143335;23;20475;-80
2024/03/20 02:32:44;;;;;;;3.80;0.90;;;17.70;58.20;;;;;;6119883;23;20161;-80
2024/03/20 02:35:11;;;;;;;3.20;0.98;;;17.80;58.20;;;;;;6167762;23;20213;-80
2024/03/20 02:37:40;;;;;;;1.20;0.80;;;17.70;58.20;;;;;;6169310;23;20567;-80
2024/03/20 02:40:09;;;;;;;3.90;1.08;;;17.70;58.30;;;;;;6169049;23;20131;-80
2024/03/20 02:42:35;;;;;;;1.50;0.80;;;17.80;58.10;;;;;;6143513;23;20180;-81
2024/03/20 02:45:02;;;;;;;5.07;0.95;;;17.70;58.10;;;;;;6169098;23;20135;-80
2024/03/20 02:47:35;;;;;;;4.32;0.93;;;17.70;58.30;;;;;;6169306;23;20151;-80
2024/03/20 02:50:01;;;;;;;1.55;0.98;;;17.80;58.40;;;;;;6144414;23;20586;-80
2024/03/20 02:52:29;;;;;;;3.70;1.10;;;17.70;58.30;;;;;;6169210;23;20143;-80
2024/03/20 02:54:59;;;;;;;2.95;0.80;;;17.60;58.50;;;;;;6167338;23;20237;-80
2024/03/20 02:57:25;;;;;;;4.55;0.80;;;17.70;58.40;;;;;;6193813;23;20166;-80
2024/03/20 02:59:51;;;;;;;2.53;1.00;;;17.70;58.40;;;;;;6193189;23;20138;-81
2024/03/20 03:02:27;;;;;;;4.53;0.90;;;17.70;58.30;;;;;;6144065;23;20158;-80
2024/03/20 03:04:56;;;;;;;4.60;1.10;;;17.70;58.30;;;;;;6168426;23;20219;-80
2024/03/20 03:07:26;;;;;;;1.80;0.90;;;17.70;58.40;;;;;;6168605;23;20197;-81
2024/03/20 03:09:54;;;;;;;3.95;1.00;;;17.70;58.20;;;;;;6193207;23;20139;-80
2024/03/20 03:12:21;;;;;;;4.35;1.10;;;17.70;58.20;;;;;;6168599;23;20230;-80
2024/03/20 03:14:49;;;;;;;4.00;1.33;;;17.70;58.30;;;;;;6168110;23;20149;-80
2024/03/20 03:17:15;;;;;;;1.63;0.90;;;17.70;58.30;;;;;;6174455;23;20248;-79
2024/03/20 03:19:41;;;;;;;4.10;1.00;;;17.70;58.30;;;;;;6198216;23;20153;-80
2024/03/20 03:22:08;;;;;;;5.50;1.10;;;17.70;58.30;;;;;;6198083;23;20197;-80
2024/03/20 03:24:37;;;;;;;2.85;1.00;;;17.60;58.30;;;;;;6147656;23;20245;-80
2024/03/20 03:27:03;;;;;;;4.15;1.08;;;17.60;59.00;;;;;;6173104;23;20218;-80
2024/03/20 03:29:33;;;;;;;4.68;0.88;;;17.70;58.30;;;;;;6172877;23;20146;-81
2024/03/20 03:31:59;;;;;;;2.83;0.90;;;17.70;58.30;;;;;;6197154;23;20209;-79
2024/03/20 03:34:30;;;;;;;2.90;1.13;;;17.60;58.30;;;;;;6198165;23;20142;-79
2024/03/20 03:36:57;;;;;;;2.40;0.90;;;17.60;58.30;;;;;;6148143;23;20185;-80
2024/03/20 03:39:27;;;;;;;3.33;1.00;;;17.60;58.30;;;;;;6198540;23;20200;-80
2024/03/20 03:41:53;;;;;;;3.30;1.00;;;17.70;58.30;;;;;;6147717;23;20185;-80
2024/03/20 03:44:19;;;;;;;1.60;1.05;;;17.70;58.10;;;;;;6197831;23;20193;-82
2024/03/20 03:46:51;;;;;;;1.67;0.80;;;17.70;58.30;;;;;;6225043;23;20156;-81
2024/03/20 03:49:17;;;;;;;3.38;0.93;;;17.70;58.20;;;;;;6172642;23;20150;-81
2024/03/20 03:51:43;;;;;;;2.42;0.93;;;17.60;58.30;;;;;;6224172;23;20130;-80
2024/03/20 03:54:09;;;;;;;1.42;0.82;;;17.60;58.40;;;;;;6197443;23;20473;-80
2024/03/20 03:56:34;;;;;;;1.33;0.80;;;17.60;58.40;;;;;;6198377;23;20142;-80
2024/03/20 03:59:00;;;;;;;1.73;0.77;;;17.70;58.50;;;;;;6198037;23;20145;-80
2024/03/20 04:01:27;;;;;;;1.40;1.00;;;17.60;58.40;;;;;;6198235;23;20230;-80
2024/03/20 04:03:52;;;;;;;3.22;1.00;;;17.60;58.70;;;;;;6198381;23;20174;-80
2024/03/20 04:06:18;;;;;;;1.85;0.70;;;17.60;58.70;;;;;;6173084;23;20138;-79
2024/03/20 04:08:48;;;;;;;2.47;1.10;;;17.50;58.40;;;;;;6197527;23;20130;-80
2024/03/20 04:11:14;;;;;;;2.13;0.70;;;17.60;58.60;;;;;;6222188;23;20570;-81
2024/03/20 04:13:40;;;;;;;1.35;0.90;;;17.50;58.60;;;;;;6173495;23;20153;-80
2024/03/20 04:16:05;;;;;;;2.08;0.70;;;17.60;58.70;;;;;;6199179;23;20173;-80
2024/03/20 04:18:32;;;;;;;2.90;0.95;;;17.60;58.60;;;;;;6202584;23;20168;-80
2024/03/20 04:20:59;;;;;;;2.13;0.90;;;17.60;58.50;;;;;;6202611;23;20156;-80
2024/03/20 04:23:25;;;;;;;3.20;0.90;;;17.60;58.40;;;;;;6202053;23;20203;-81
2024/03/20 04:25:52;;;;;;;2.38;0.98;;;17.60;58.50;;;;;;6202929;23;20134;-80
2024/03/20 04:28:17;;;;;;;2.05;1.08;;;17.60;58.30;;;;;;6177085;23;20194;-83
2024/03/20 04:30:43;;;;;;;3.17;0.90;;;17.60;58.70;;;;;;6202087;23;20172;-80
2024/03/20 04:33:12;;;;;;;3.65;0.90;;;17.60;58.40;;;;;;6202302;23;20153;-80
2024/03/20 04:35:43;;;;;;;2.65;0.90;;;17.50;58.60;;;;;;6201248;23;20155;-80
2024/03/20 04:38:09;;;;;;;2.80;0.82;;;17.50;58.40;;;;;;6175920;23;20157;-80
2024/03/20 04:41:00;;;;;;;4.35;0.80;;;17.60;58.60;;;;;;6202537;23;20191;-81
2024/03/20 04:43:27;;;;;;;2.28;0.95;;;17.60;58.60;;;;;;6225828;23;20169;-80
2024/03/20 04:45:54;;;;;;;2.45;0.85;;;17.50;58.30;;;;;;6151741;23;20172;-82
2024/03/20 04:48:20;;;;;;;3.42;0.90;;;17.60;58.50;;;;;;6202517;23;20156;-80
2024/03/20 04:50:47;;;;;;;2.22;1.00;;;17.60;58.50;;;;;;6202078;23;20134;-82
2024/03/20 04:53:13;;;;;;;4.97;1.10;;;17.50;58.50;;;;;;6226256;23;20133;-80
2024/03/20 04:55:40;;;;;;;1.30;0.77;;;17.60;58.50;;;;;;6176491;23;20149;-80
2024/03/20 04:58:06;;;;;;;2.03;0.90;;;17.50;58.70;;;;;;6227321;23;20149;-80
2024/03/20 05:00:36;;;;;;;2.25;0.90;;;17.60;58.60;;;;;;6202016;23;20149;-80
2024/03/20 05:03:04;;;;;;;1.92;0.98;;;17.50;58.70;;;;;;6226105;23;20248;-80
2024/03/20 05:05:29;;;;;;;1.40;0.90;;;17.50;58.70;;;;;;6201854;23;20137;-80
2024/03/20 05:07:56;;;;;;;4.00;1.20;;;17.50;58.60;;;;;;6252903;23;20140;-80
2024/03/20 05:10:23;;;;;;;3.00;1.23;;;17.50;58.60;;;;;;6176487;23;20145;-80
2024/03/20 05:12:49;;;;;;;1.25;0.98;;;17.50;58.40;;;;;;6201255;23;20184;-82
2024/03/20 05:15:16;;;;;;;2.33;1.15;;;17.50;58.60;;;;;;6176523;23;20158;-82
2024/03/20 05:17:41;;;;;;;3.40;0.93;;;17.50;58.60;;;;;;6225151;23;20195;-80
2024/03/20 05:20:09;;;;;;;3.08;0.85;;;17.50;58.40;;;;;;6200871;23;20137;-80
2024/03/20 05:22:35;;;;;;;3.00;1.23;;;17.60;58.50;;;;;;6201613;23;20168;-80
2024/03/20 05:25:01;;;;;;;3.55;1.00;;;17.50;58.30;;;;;;6175983;23;20153;-82
2024/03/20 05:27:28;;;;;;;1.23;1.00;;;17.60;58.50;;;;;;6200738;23;20129;-81
2024/03/20 05:29:55;;;;;;;2.08;0.90;;;17.60;58.30;;;;;;6150457;23;20175;-80
2024/03/20 05:32:23;;;;;;;2.13;1.00;;;17.50;58.50;;;;;;6126662;23;20577;-79
2024/03/20 05:34:50;;;;;;;2.42;0.68;;;17.60;58.40;;;;;;6252906;23;20126;-80
2024/03/20 05:37:18;;;;;;;2.55;0.82;;;17.60;58.30;;;;;;6150367;23;20150;-81
2024/03/20 05:39:47;;;;;;;2.30;1.08;;;17.50;58.30;;;;;;6176645;23;20185;-81
2024/03/20 05:42:13;;;;;;;2.22;1.02;;;17.60;58.30;;;;;;6201166;23;20232;-80
2024/03/20 05:44:41;;;;;;;1.58;1.10;;;17.50;58.60;;;;;;6176003;23;20204;-80
2024/03/20 05:47:06;;;;;;;1.63;0.90;;;17.50;58.50;;;;;;6201554;23;20130;-80
2024/03/20 05:49:33;;;;;;;2.42;1.05;;;17.50;58.50;;;;;;6175386;23;20149;-80
2024/03/20 05:51:59;;;;;;;2.13;0.88;;;17.60;58.40;;;;;;6201039;23;20224;-80
2024/03/20 05:54:25;;;;;;;3.15;1.05;;;17.50;58.30;;;;;;6251730;23;20134;-80
2024/03/20 05:56:52;;;;;;;3.33;0.95;;;17.50;58.50;;;;;;6225908;23;20129;-79
2024/03/20 05:59:18;;;;;;;2.63;1.30;;;17.60;58.30;;;;;;6200356;23;20153;-80
2024/03/20 06:01:45;;;;;;;1.77;1.00;;;17.50;58.50;;;;;;6225086;23;20203;-81
2024/03/20 06:04:12;;;;;;;1.73;0.80;;;17.50;58.50;;;;;;6201502;23;20177;-80
2024/03/20 06:06:40;;;;;;;1.35;0.80;;;17.60;58.50;;;;;;6203470;23;20145;-81
2024/03/20 06:09:10;;;;;;;0.70;0.70;;;17.50;58.40;;;;;;6178256;23;20145;-79
2024/03/20 06:11:36;;;;;;;2.13;0.95;;;17.50;58.50;;;;;;6205174;23;20581;-79
2024/03/20 06:14:04;;;;;;;2.97;1.10;;;17.50;58.30;;;;;;6205439;23;20153;-81
2024/03/20 06:16:29;;;;;;;1.58;0.90;;;17.50;58.30;;;;;;6201896;23;20186;-81
2024/03/20 06:18:58;;;;;;;2.58;0.98;;;17.50;58.30;;;;;;6200800;23;20172;-81
2024/03/20 06:21:25;;;;;;;1.25;0.90;;;17.60;58.40;;;;;;6199761;23;20158;-80
2024/03/20 06:23:53;;;;;;;1.13;0.85;;;17.60;58.10;;;;;;6198159;23;20620;-81
2024/03/20 06:26:23;;;;;;;1.27;0.90;;;17.50;58.50;;;;;;6173458;23;20153;-80
2024/03/20 06:28:51;;;;;;;2.55;0.98;;;17.60;58.40;;;;;;6222231;23;20126;-81
2024/03/20 06:31:16;;;;;;;1.35;0.95;;;17.60;59.00;;;;;;6218727;23;20146;-82
2024/03/20 06:33:44;;;;;;;2.25;0.90;;;17.50;58.40;;;;;;6166850;23;20158;-82
2024/03/20 06:36:10;;;;;;;2.35;0.98;;;17.60;58.30;;;;;;6167488;23;20150;-82
2024/03/20 06:38:39;;;;;;;3.45;0.85;;;17.50;58.50;;;;;;6190831;23;20153;-81
2024/03/20 06:41:05;;;;;;;2.05;1.10;;;17.50;58.50;;;;;;6190611;23;20188;-82
2024/03/20 06:43:34;;;;;;;2.20;0.90;;;17.50;58.60;;;;;;6217684;23;20165;-82
2024/03/20 06:46:01;;;;;;;1.48;0.98;;;17.50;58.50;;;;;;6190588;23;20228;-81
2024/03/20 06:48:28;;;;;;;1.77;0.90;;;17.50;58.50;;;;;;6191204;23;20131;-81
2024/03/20 06:50:58;;;;;;;3.38;1.10;;;17.60;58.30;;;;;;6214873;23;20182;-81
2024/03/20 06:53:26;;;;;;;1.67;1.00;;;17.50;58.20;;;;;;6190181;23;20138;-81
2024/03/20 06:55:54;;;;;;;2.35;0.90;;;17.50;58.40;;;;;;6189877;23;20150;-82
2024/03/20 06:58:22;;;;;;;2.33;0.80;;;17.50;58.50;;;;;;6217330;23;20135;-81
2024/03/20 07:00:48;;;;;;;2.30;1.05;;;17.50;58.40;;;;;;6191940;23;20134;-82
2024/03/20 07:03:14;;;;;;;1.23;0.88;;;17.50;58.40;;;;;;6215977;23;20200;-82
2024/03/20 07:05:40;;;;;;;0.85;0.80;;;17.50;58.20;;;;;;6168047;23;20225;-81
2024/03/20 07:08:09;;;;;;;1.10;0.90;;;17.60;58.20;;;;;;6167124;23;20149;-81
2024/03/20 07:10:36;;;;;;;1.42;0.93;;;17.50;57.80;;;;;;6191576;23;20490;-81
2024/03/20 07:13:04;;;;;;;2.72;1.20;;;17.50;58.20;;;;;;6191839;23;20165;-81
2024/03/20 07:15:30;;;;;;;0.65;0.63;;;17.60;57.90;;;;;;6217051;23;20211;-81
2024/03/20 07:17:56;;;;;;;0.88;0.88;;;17.60;58.00;;;;;;6191118;23;20260;-81
2024/03/20 07:20:21;;;;;;;3.88;1.20;;;17.60;57.60;;;;;;6218699;23;20209;-80
2024/03/20 07:22:47;;;;;;;1.48;0.80;;;17.60;57.90;;;;;;6216442;23;20712;-81
2024/03/20 07:25:13;;;;;;;1.10;0.70;;;17.70;57.60;;;;;;6216090;23;20439;-82
2024/03/20 07:27:40;;;;;;;2.25;1.20;;;17.70;57.70;;;;;;6189583;23;20585;-81
2024/03/20 07:30:08;;;;;;;1.80;1.08;;;17.70;57.20;;;;;;6190591;23;20139;-84
2024/03/20 07:32:35;;;;;;;2.90;0.93;;;17.70;57.40;;;;;;6165348;23;20146;-81
2024/03/20 07:35:01;;;;;;;0.80;0.77;;;17.70;57.30;;;;;;6190405;23;20526;-81
2024/03/20 07:37:28;;;;;;;1.92;1.23;;;17.70;57.60;;;;;;6214633;23;20138;-80
2024/03/20 07:39:54;;;;;;;3.05;1.33;;;17.70;57.30;;;;;;6189575;23;20149;-81
2024/03/20 07:42:38;;;;;;;2.22;1.00;;;17.70;57.60;;;;;;6190240;23;20208;-80
2024/03/20 07:45:08;;;;;;;1.10;0.80;;;17.70;57.60;;;;;;6190343;23;20150;-80
2024/03/20 07:47:59;;;;;;;1.67;1.10;;;17.70;57.50;;;;;;6191806;23;20150;-80
2024/03/20 07:50:25;;;;;;;1.15;0.90;;;17.70;57.70;;;;;;6124827;23;20247;-81
2024/03/20 07:52:54;;;;;;;1.40;0.95;;;17.60;57.70;;;;;;6126567;23;20160;-81
2024/03/20 08:02:34;;;;;;;1.90;0.90;;;17.70;57.90;;;;;;5900804;24;20184;-80
2024/03/20 08:05:00;;;;;;;1.38;1.00;;;17.60;58.00;;;;;;5900437;24;20181;-81
2024/03/20 08:07:31;;;;;;;1.70;0.80;;;17.70;57.60;;;;;;5898140;24;20153;-81
2024/03/20 08:09:57;;;;;;;2.85;0.90;;;17.70;57.40;;;;;;5896883;24;20261;-81
2024/03/20 08:12:23;;;;;;;1.08;0.90;;;17.70;57.50;;;;;;5901535;24;20470;-81
2024/03/20 08:14:51;;;;;;;1.80;1.08;;;17.80;57.30;;;;;;5901220;24;20793;-80
2024/03/20 08:17:20;;;;;;;5.13;1.30;;;17.80;57.40;;;;;;5899461;24;20650;-82
2024/03/20 08:19:52;;;;;;;8.50;1.30;;;17.90;57.50;;;;;;5901858;24;20158;-80
2024/03/20 08:22:19;;;;;;;4.90;1.27;;;17.90;57.60;;;;;;5874336;24;20188;-81
2024/03/20 08:24:46;;;;;;;2.42;0.88;;;17.90;57.00;;;;;;5873181;24;20182;-80
2024/03/20 08:27:12;;;;;;;4.03;1.00;;;17.80;57.00;;;;;;5877902;24;20614;-81
2024/03/20 08:29:41;;;;;;;1.48;1.10;;;17.90;57.60;;;;;;5900552;24;20295;-81
2024/03/20 08:32:09;;;;;;;5.90;1.00;;;17.80;57.20;;;;;;5899981;24;20157;-81
2024/03/20 08:34:35;;;;;;;3.72;1.00;;;17.80;57.60;;;;;;5947223;23;20163;-80
2024/03/20 08:37:05;;;;;;;4.75;0.90;;;17.80;57.30;;;;;;6048926;23;20164;-81
2024/03/20 08:39:35;;;;;;;4.28;1.10;;;17.80;57.40;;;;;;6149063;23;20180;-81
2024/03/20 08:42:01;;;;;;;4.30;1.10;;;17.90;57.60;;;;;;6165026;23;20153;-81
2024/03/20 08:44:30;;;;;;;5.35;1.20;;;17.80;57.60;;;;;;6165862;23;20186;-81
2024/03/20 08:46:57;;;;;;;2.60;0.95;;;17.80;57.60;;;;;;6164721;23;20150;-81
2024/03/20 08:49:37;;;;;;;3.38;1.10;;;17.80;57.20;;;;;;6216768;23;20134;-81
2024/03/20 08:52:11;;;;;;;4.50;1.73;;;17.80;57.40;;;;;;6110585;23;20169;-81
2024/03/20 08:54:42;;;;;;;3.75;1.13;;;17.90;58.00;;;;;;6133756;23;20158;-81
2024/03/20 08:57:08;;;;;;;2.20;1.10;;;17.90;57.60;;;;;;6113276;23;20586;-81
2024/03/20 08:59:34;;;;;;;2.25;1.13;;;17.90;56.60;;;;;;6136640;23;20158;-81
2024/03/20 09:02:02;;;;;;;2.53;1.10;;;17.90;57.20;;;;;;6137347;23;20830;-81
2024/03/20 09:04:28;;;;;;;2.88;1.00;;;18.00;57.70;;;;;;6137701;23;20197;-81
2024/03/20 09:06:55;;;;;;;2.75;0.90;;;18.00;57.30;;;;;;6135661;23;20170;-82
2024/03/20 09:09:21;;;;;;;4.15;1.00;;;17.90;57.40;;;;;;6135023;23;20666;-82
2024/03/20 09:11:47;;;;;;;1.75;0.93;;;17.90;57.30;;;;;;6157633;23;20154;-82
2024/03/20 09:14:15;;;;;;;4.03;1.10;;;17.90;57.50;;;;;;6133162;23;20233;-82
2024/03/20 09:16:41;;;;;;;1.88;0.90;;;18.00;57.50;;;;;;6125788;23;20636;-82
2024/03/20 09:19:15;;;;;;;1.60;1.02;;;17.90;57.20;;;;;;6163914;23;20142;-83
2024/03/20 09:21:43;;;;;;;2.00;1.13;;;18.00;57.10;;;;;;6215703;23;20130;-82
2024/03/20 09:24:14;;;;;;;1.83;1.00;;;18.00;57.10;;;;;;6190041;23;20169;-82
2024/03/20 09:26:40;;;;;;;3.17;1.02;;;18.00;57.10;;;;;;6214178;23;20195;-82
2024/03/20 09:29:05;;;;;;;3.25;1.30;;;18.00;57.10;;;;;;6188757;23;20205;-81
2024/03/20 09:31:31;;;;;;;3.97;1.10;;;18.00;57.10;;;;;;6189487;23;20615;-81
2024/03/20 09:33:59;;;;;;;4.45;1.10;;;18.10;57.30;;;;;;6189627;23;20585;-81
2024/03/20 09:36:27;;;;;;;2.40;1.05;;;18.10;56.60;;;;;;6190687;23;20138;-81
2024/03/20 09:38:54;;;;;;;3.35;0.90;;;18.10;57.00;;;;;;6189745;23;20146;-82
2024/03/20 09:41:24;;;;;;;2.45;1.13;;;18.10;57.10;;;;;;6189591;23;20142;-80
2024/03/20 09:43:54;;;;;;;2.22;1.00;;;18.10;57.00;;;;;;6190623;23;20486;-82
2024/03/20 09:46:20;;;;;;;3.35;1.13;;;18.10;56.90;;;;;;6191267;23;20335;-81
2024/03/20 09:48:48;;;;;;;3.10;1.20;;;18.20;56.60;;;;;;6190451;23;20149;-82
2024/03/20 09:51:17;;;;;;;2.92;1.10;;;18.20;57.00;;;;;;6168467;23;20571;-81
2024/03/20 09:53:43;;;;;;;3.15;1.10;;;18.10;57.40;;;;;;6191567;23;20169;-80
2024/03/20 09:56:10;;;;;;;1.70;1.08;;;18.10;57.30;;;;;;6216558;23;20134;-81
2024/03/20 09:58:40;;;;;;;1.70;1.10;;;18.20;57.20;;;;;;6216797;23;20637;-81
2024/03/20 10:01:12;;;;;;;2.67;1.35;;;18.20;57.10;;;;;;6169359;23;20139;-80
2024/03/20 10:03:43;;;;;;;1.33;0.95;;;18.10;57.10;;;;;;6141826;23;20177;-80
2024/03/20 10:06:09;;;;;;;2.33;0.90;;;18.20;57.50;;;;;;6141155;23;20176;-79
2024/03/20 10:11:53;;;;;;;2.10;1.10;;;18.10;57.10;;;;;;6039833;23;20164;-80
2024/03/20 10:14:21;;;;;;;2.83;1.08;;;18.20;57.60;;;;;;6014806;23;20186;-81
2024/03/20 10:16:47;;;;;;;2.40;0.95;;;18.20;57.30;;;;;;6068767;23;20301;-81
2024/03/20 10:19:32;;;;;;;3.92;1.00;;;18.20;57.40;;;;;;6057698;23;20159;-81
2024/03/20 10:21:58;;;;;;;1.30;0.95;;;18.20;57.50;;;;;;5999730;23;20557;-82
2024/03/20 10:24:28;;;;;;;3.72;1.10;;;18.20;57.60;;;;;;5993023;23;20190;-81
2024/03/20 10:27:43;;;;;;;2.35;1.00;;;18.10;58.10;;;;;;5969052;23;20158;-81
2024/03/20 10:30:28;;;;;;;2.75;0.93;;;18.10;57.90;;;;;;5932659;23;20206;-81
2024/03/20 10:32:58;;;;;;;3.00;1.05;;;18.20;57.90;;;;;;6012209;23;20165;-80
2024/03/20 10:35:24;;;;;;;4.45;0.95;;;18.10;57.80;;;;;;5992847;23;20190;-81
2024/03/20 10:37:50;;;;;;;0.95;0.70;;;18.20;57.80;;;;;;6015072;23;20173;-81
2024/03/20 10:40:29;;;;;;;1.48;0.80;;;18.20;57.60;;;;;;6015376;23;20622;-81
2024/03/20 10:42:54;;;;;;;1.83;0.90;;;18.20;57.60;;;;;;5981852;24;20191;-80
2024/03/20 10:45:50;;;;;;;2.20;0.80;;;18.20;57.70;;;;;;5960692;23;20460;-81
2024/03/20 10:48:17;;;;;;;1.58;0.80;;;18.30;57.90;;;;;;5955322;23;20184;-81
2024/03/20 10:50:46;;;;;;;1.08;0.82;;;18.20;57.70;;;;;;6038649;23;20230;-81
2024/03/20 10:53:14;;;;;;;1.08;0.88;;;18.20;57.90;;;;;;6014120;23;20656;-81
2024/03/20 10:55:43;;;;;;;4.93;1.00;;;18.20;57.90;;;;;;6039123;23;20160;-80
2024/03/20 10:58:10;;;;;;;1.50;0.98;;;18.10;58.00;;;;;;6040471;23;20191;-79
2024/03/20 11:00:37;;;;;;;6.63;1.27;;;18.10;58.00;;;;;;6039634;23;20184;-80
2024/03/20 11:03:40;;;;;;;1.80;0.70;;;18.20;58.10;;;;;;6016070;23;20224;-80
2024/03/20 11:06:43;;;;;;;1.38;1.00;;;18.10;58.00;;;;;;5994063;23;20715;-82
2024/03/20 11:09:17;;;;;;;2.28;0.88;;;18.20;57.90;;;;;;6015620;23;20553;-80
2024/03/20 11:11:43;;;;;;;1.27;0.90;;;18.20;57.80;;;;;;6014551;23;20177;-80
2024/03/20 11:14:13;;;;;;;1.73;0.80;;;18.20;57.70;;;;;;6058201;23;20204;-80
2024/03/20 11:16:39;;;;;;;0.80;0.70;;;18.20;57.80;;;;;;6020921;23;20248;-81
2024/03/20 11:19:09;;;;;;;1.85;0.80;;;18.20;57.80;;;;;;6116489;23;20156;-80
2024/03/20 11:21:36;;;;;;;1.60;0.85;;;18.20;57.80;;;;;;6183392;23;20244;-80
2024/03/20 11:24:03;;;;;;;1.20;0.80;;;18.20;57.80;;;;;;6220073;23;20166;-81
2024/03/20 11:26:30;;;;;;;2.83;0.90;;;18.20;57.90;;;;;;6214792;23;20213;-82
2024/03/20 11:28:58;;;;;;;1.98;0.70;;;18.20;57.70;;;;;;6217510;23;20554;-81
2024/03/20 11:31:25;;;;;;;1.20;0.90;;;18.30;57.90;;;;;;6167426;23;20578;-81
2024/03/20 11:33:51;;;;;;;1.77;0.80;;;18.20;57.90;;;;;;6191387;23;20165;-82
2024/03/20 11:36:19;;;;;;;1.20;0.70;;;18.30;57.80;;;;;;6216412;23;20138;-80
2024/03/20 11:38:45;;;;;;;1.40;0.80;;;18.30;57.60;;;;;;6190020;23;20141;-79
2024/03/20 11:41:12;;;;;;;1.08;0.75;;;18.20;57.60;;;;;;6214357;23;20768;-80
2024/03/20 11:43:43;;;;;;;2.25;0.77;;;18.30;58.40;;;;;;6214590;23;20200;-79
2024/03/20 11:46:22;;;;;;;1.17;0.85;;;18.30;57.80;;;;;;6215155;23;20168;-80
2024/03/20 11:48:55;;;;;;;2.00;0.80;;;18.20;57.80;;;;;;6196424;23;20129;-82
2024/03/20 11:51:23;;;;;;;1.00;0.82;;;18.30;57.30;;;;;;6219666;23;20153;-80
2024/03/20 11:53:49;;;;;;;1.38;0.85;;;18.30;57.20;;;;;;6191824;23;20277;-81
2024/03/20 11:56:16;;;;;;;2.03;0.82;;;18.30;57.30;;;;;;6166462;23;20228;-82
2024/03/20 11:58:42;;;;;;;0.80;0.75;;;18.30;57.30;;;;;;6216793;23;20131;-81
2024/03/20 12:01:15;;;;;;;1.20;0.85;;;18.30;57.60;;;;;;6192062;23;20248;-81
2024/03/20 12:03:47;;;;;;;1.80;0.73;;;18.30;57.40;;;;;;6192094;23;20237;-81
2024/03/20 12:06:16;;;;;;;1.83;0.80;;;18.30;57.60;;;;;;6167444;23;20260;-81
2024/03/20 12:08:42;;;;;;;0.73;0.70;;;18.30;57.50;;;;;;6216427;23;20185;-81
2024/03/20 12:11:34;;;;;;;1.38;0.70;;;18.30;57.40;;;;;;6192826;23;20138;-81
2024/03/20 12:14:00;;;;;;;0.73;0.73;;;18.30;57.40;;;;;;6217458;23;20157;-81
2024/03/20 12:16:34;;;;;;;1.52;0.70;;;18.30;57.30;;;;;;6167356;23;20217;-81
2024/03/20 12:19:07;;;;;;;3.30;0.88;;;18.40;57.50;;;;;;6192601;23;20481;-81
2024/03/20 12:21:35;;;;;;;0.75;0.75;;;18.30;57.50;;;;;;6141263;23;20645;-81
2024/03/20 12:24:03;;;;;;;1.23;0.65;;;18.40;57.50;;;;;;6165077;23;20182;-80
2024/03/20 12:26:29;;;;;;;0.65;0.65;;;18.30;57.40;;;;;;6141415;23;20157;-81
2024/03/20 12:28:57;;;;;;;2.15;0.75;;;18.30;57.70;;;;;;6216635;23;20476;-80
2024/03/20 12:31:23;;;;;;;2.13;0.68;;;18.30;57.60;;;;;;6163737;23;20154;-80
2024/03/20 12:33:50;;;;;;;2.22;1.13;;;18.30;57.50;;;;;;6217479;23;20138;-81
2024/03/20 12:36:17;;;;;;;1.35;0.75;;;18.30;57.20;;;;;;6195169;23;20134;-81
2024/03/20 12:38:55;;;;;;;1.05;0.80;;;18.30;57.20;;;;;;6218125;23;20142;-80
2024/03/20 12:41:49;;;;;;;2.80;0.82;;;18.30;57.30;;;;;;6196131;23;20152;-84
2024/03/20 12:44:18;;;;;;;1.55;0.70;;;18.30;57.30;;;;;;6173360;23;20177;-81
2024/03/20 12:46:48;;;;;;;0.70;0.60;;;18.30;57.10;;;;;;6144171;23;20258;-80
2024/03/20 12:49:14;;;;;;;1.35;0.70;;;18.40;57.00;;;;;;6139494;23;20244;-81
2024/03/20 12:51:44;;;;;;;0.60;0.60;;;18.40;57.10;;;;;;6165740;23;20170;-82
2024/03/20 12:54:13;;;;;;;0.95;0.80;;;18.40;57.00;;;;;;6146235;23;20247;-81
2024/03/20 12:56:39;;;;;;;0.60;0.60;;;18.40;56.50;;;;;;6166677;23;20150;-80
2024/03/20 12:59:05;;;;;;;2.25;0.88;;;18.40;57.00;;;;;;6215234;23;20473;-81
2024/03/20 13:01:32;;;;;;;1.55;0.90;;;18.40;56.90;;;;;;6194867;23;20443;-84
2024/03/20 13:48:05;;;;;;;0.98;0.60;;;18.40;57.50;;;;;;6239784;22;20324;-83
2024/03/20 13:50:34;;;;;;;0.80;0.70;;;18.50;57.30;;;;;;6111383;23;20163;-83